createdAt,value
2017-09-20T00:02:05.401Z,10.80
2017-09-20T00:04:38.073Z,10.80
2017-09-20T00:07:10.329Z,10.90
2017-09-20T00:09:42.764Z,10.90
2017-09-20T00:12:15.913Z,10.80
2017-09-20T00:14:48.478Z,10.80
2017-09-20T00:17:20.988Z,10.80
2017-09-20T00:19:53.377Z,10.80
2017-09-20T00:22:25.678Z,10.70
2017-09-20T00:24:58.800Z,10.60
2017-09-20T00:27:31.266Z,10.60
2017-09-20T00:30:03.573Z,10.70
2017-09-20T00:32:35.941Z,10.70
2017-09-20T00:35:08.273Z,10.70
2017-09-20T00:37:40.718Z,10.70
2017-09-20T00:40:13.125Z,10.70
2017-09-20T00:42:45.467Z,10.70
2017-09-20T00:45:17.641Z,10.70
2017-09-20T00:47:49.996Z,10.60
2017-09-20T00:50:22.195Z,10.70
2017-09-20T00:52:54.548Z,10.70
2017-09-20T00:55:27.097Z,10.60
2017-09-20T00:58:00.234Z,10.70
2017-09-20T01:00:32.648Z,10.70
2017-09-20T01:03:04.977Z,10.60
2017-09-20T01:05:37.430Z,10.60
2017-09-20T01:08:09.744Z,10.60
2017-09-20T01:10:41.981Z,10.60
2017-09-20T01:13:14.325Z,10.60
2017-09-20T01:15:46.641Z,10.40
2017-09-20T01:18:19.686Z,10.40
2017-09-20T01:21:04.280Z,10.40
2017-09-20T01:23:36.758Z,10.40
2017-09-20T01:26:09.250Z,10.40
2017-09-20T01:28:41.649Z,10.40
2017-09-20T01:31:14.025Z,10.30
2017-09-20T01:33:47.180Z,10.40
2017-09-20T01:36:19.402Z,10.30
2017-09-20T01:38:52.497Z,10.30
2017-09-20T01:41:24.724Z,10.20
2017-09-20T01:43:56.990Z,10.30
2017-09-20T01:46:30.050Z,10.20
2017-09-20T01:49:02.336Z,10.20
2017-09-20T01:51:34.604Z,10.30
2017-09-20T01:54:06.894Z,10.30
2017-09-20T01:56:39.249Z,10.30
2017-09-20T01:59:11.604Z,10.30
2017-09-20T02:01:43.796Z,10.30
2017-09-20T02:04:16.826Z,10.20
2017-09-20T02:06:49.111Z,10.10
2017-09-20T02:09:21.473Z,10.10
2017-09-20T02:11:53.926Z,10.10
2017-09-20T02:14:26.284Z,10.10
2017-09-20T02:16:58.658Z,10.00
2017-09-20T02:19:30.904Z,10.00
2017-09-20T02:22:04.120Z,10.00
2017-09-20T02:24:36.488Z,10.00
2017-09-20T02:27:09.744Z,10.00
2017-09-20T02:29:42.730Z,10.00
2017-09-20T02:32:15.214Z,9.90
2017-09-20T02:34:47.625Z,10.00
2017-09-20T02:37:20.092Z,9.90
2017-09-20T02:39:52.653Z,9.90
2017-09-20T02:42:25.723Z,9.90
2017-09-20T02:44:58.682Z,9.90
2017-09-20T02:47:31.634Z,9.90
2017-09-20T02:50:03.867Z,9.80
2017-09-20T02:52:36.103Z,9.90
2017-09-20T02:55:08.582Z,9.90
2017-09-20T02:57:41.049Z,9.90
2017-09-20T03:00:13.471Z,9.90
2017-09-20T03:02:46.505Z,9.90
2017-09-20T03:05:18.865Z,9.90
2017-09-20T03:07:51.113Z,9.90
2017-09-20T03:10:23.273Z,9.80
2017-09-20T03:12:55.685Z,9.80
2017-09-20T03:15:27.934Z,9.80
2017-09-20T03:18:00.110Z,9.70
2017-09-20T03:20:32.514Z,9.80
2017-09-20T03:23:04.824Z,9.70
2017-09-20T03:25:37.877Z,9.70
2017-09-20T03:28:10.101Z,9.70
2017-09-20T03:30:43.043Z,9.70
2017-09-20T03:33:16.233Z,9.70
2017-09-20T03:35:48.643Z,9.60
2017-09-20T03:38:20.945Z,9.70
2017-09-20T03:40:53.328Z,9.80
2017-09-20T03:43:26.506Z,9.80
2017-09-20T03:45:58.754Z,9.70
2017-09-20T03:48:31.089Z,9.80
2017-09-20T03:51:03.345Z,9.80
2017-09-20T03:53:35.538Z,9.80
2017-09-20T03:56:07.750Z,9.80
2017-09-20T03:58:40.281Z,9.80
2017-09-20T04:01:12.754Z,9.90
2017-09-20T04:03:45.050Z,10.00
2017-09-20T04:06:17.447Z,10.10
2017-09-20T04:08:49.858Z,10.10
2017-09-20T04:11:22.094Z,10.20
2017-09-20T04:13:54.453Z,10.20
2017-09-20T04:16:27.810Z,10.30
2017-09-20T04:19:00.869Z,10.30
2017-09-20T04:21:33.204Z,10.20
2017-09-20T04:24:05.560Z,10.30
2017-09-20T04:26:37.844Z,10.30
2017-09-20T04:29:10.281Z,10.30
2017-09-20T04:31:42.568Z,10.30
2017-09-20T04:34:15.485Z,10.40
2017-09-20T04:36:47.945Z,10.40
2017-09-20T04:39:20.444Z,10.50
2017-09-20T04:41:52.789Z,10.50
2017-09-20T04:44:25.070Z,10.60
2017-09-20T04:46:57.460Z,10.60
2017-09-20T04:49:29.835Z,10.70
2017-09-20T04:52:02.164Z,10.70
2017-09-20T04:54:34.369Z,10.90
2017-09-20T04:57:06.607Z,10.80
2017-09-20T04:59:38.866Z,10.80
2017-09-20T05:02:11.032Z,10.90
2017-09-20T05:04:44.020Z,10.90
2017-09-20T05:07:16.388Z,10.90
2017-09-20T05:09:49.478Z,11.00
2017-09-20T05:12:21.876Z,10.90
2017-09-20T05:14:54.299Z,11.00
2017-09-20T05:17:26.706Z,11.00
2017-09-20T05:20:00.198Z,11.00
2017-09-20T05:22:32.484Z,11.00
2017-09-20T05:25:05.429Z,11.10
2017-09-20T05:27:37.922Z,11.10
2017-09-20T05:30:10.172Z,11.10
2017-09-20T05:32:42.505Z,11.20
2017-09-20T05:35:14.935Z,11.20
2017-09-20T05:37:47.212Z,11.20
2017-09-20T05:40:19.778Z,11.20
2017-09-20T05:42:52.144Z,11.40
2017-09-20T05:45:24.712Z,11.20
2017-09-20T05:47:57.038Z,11.20
2017-09-20T05:50:29.633Z,11.10
2017-09-20T05:53:01.969Z,11.20
2017-09-20T05:55:34.407Z,11.30
2017-09-20T05:58:06.833Z,11.40
2017-09-20T06:00:39.332Z,11.50
2017-09-20T06:03:11.669Z,11.50
2017-09-20T06:05:44.022Z,11.60
2017-09-20T06:08:16.504Z,11.60
2017-09-20T06:10:48.693Z,11.70
2017-09-20T06:13:21.861Z,11.90
2017-09-20T06:15:54.209Z,11.90
2017-09-20T06:18:26.579Z,11.90
2017-09-20T06:20:58.882Z,12.00
2017-09-20T06:23:31.096Z,12.10
2017-09-20T06:26:03.445Z,12.10
2017-09-20T06:28:35.856Z,12.30
2017-09-20T06:31:08.385Z,12.30
2017-09-20T06:33:41.471Z,12.20
2017-09-20T06:36:13.735Z,12.20
2017-09-20T06:38:46.049Z,12.20
2017-09-20T06:41:18.459Z,12.30
2017-09-20T06:43:50.606Z,12.40
2017-09-20T06:46:23.650Z,12.30
2017-09-20T06:48:55.945Z,12.30
2017-09-20T06:51:28.288Z,12.40
2017-09-20T06:54:00.665Z,12.30
2017-09-20T06:56:33.872Z,12.40
2017-09-20T06:59:06.188Z,12.40
2017-09-20T07:01:38.742Z,13.30
2017-09-20T07:04:11.172Z,14.30
2017-09-20T07:06:43.400Z,14.40
2017-09-20T07:09:15.798Z,14.50
2017-09-20T07:11:48.153Z,14.70
2017-09-20T07:14:21.127Z,16.20
2017-09-20T07:16:53.463Z,16.10
2017-09-20T07:19:25.842Z,16.30
2017-09-20T07:21:58.125Z,15.80
2017-09-20T07:24:31.201Z,18.30
2017-09-20T07:27:03.486Z,18.30
2017-09-20T07:29:36.028Z,19.70
2017-09-20T07:32:08.173Z,20.40
2017-09-20T07:34:40.552Z,20.70
2017-09-20T07:37:12.831Z,20.70
2017-09-20T07:39:45.204Z,21.60
2017-09-20T07:42:17.454Z,22.00
2017-09-20T07:44:49.642Z,22.40
2017-09-20T07:47:21.857Z,22.70
2017-09-20T07:49:54.055Z,22.60
2017-09-20T07:52:26.703Z,23.20
2017-09-20T07:54:59.702Z,22.60
2017-09-20T07:57:31.997Z,22.50
2017-09-20T08:00:05.193Z,23.00
2017-09-20T08:02:37.641Z,23.00
2017-09-20T08:05:09.903Z,22.30
2017-09-20T08:07:42.341Z,23.00
2017-09-20T08:10:14.555Z,23.00
2017-09-20T08:12:46.909Z,23.50
2017-09-20T08:15:19.149Z,22.90
2017-09-20T08:17:51.768Z,22.70
2017-09-20T08:20:24.061Z,23.10
2017-09-20T08:22:56.360Z,23.10
2017-09-20T08:25:28.828Z,23.60
2017-09-20T08:28:01.097Z,24.00
2017-09-20T08:30:33.467Z,24.70
2017-09-20T08:33:05.649Z,23.50
2017-09-20T08:35:38.152Z,23.60
2017-09-20T08:38:10.542Z,24.20
2017-09-20T08:40:42.847Z,24.00
2017-09-20T08:43:15.301Z,24.60
2017-09-20T08:45:48.254Z,25.00
2017-09-20T08:48:21.169Z,24.70
2017-09-20T08:50:53.693Z,24.70
2017-09-20T08:53:26.053Z,24.90
2017-09-20T08:55:58.344Z,24.70
2017-09-20T08:58:30.768Z,25.40
2017-09-20T09:01:02.988Z,24.00
2017-09-20T09:03:35.098Z,22.40
2017-09-20T09:06:08.241Z,23.50
2017-09-20T09:08:40.573Z,23.50
2017-09-20T09:11:12.962Z,23.30
2017-09-20T09:13:46.054Z,24.90
2017-09-20T09:16:18.209Z,24.90
2017-09-20T09:18:50.637Z,24.90
2017-09-20T09:21:23.075Z,25.10
2017-09-20T09:23:55.581Z,23.80
2017-09-20T09:26:28.196Z,24.60
2017-09-20T09:29:00.912Z,24.00
2017-09-20T09:31:33.579Z,22.40
2017-09-20T09:34:05.955Z,21.70
2017-09-20T09:36:38.471Z,21.50
2017-09-20T09:39:10.975Z,20.50
2017-09-20T09:41:43.311Z,19.80
2017-09-20T09:44:16.021Z,19.70
2017-09-20T09:46:49.128Z,18.70
2017-09-20T09:49:21.960Z,18.60
2017-09-20T09:51:54.252Z,19.00
2017-09-20T09:54:26.556Z,19.90
2017-09-20T09:56:58.822Z,20.50
2017-09-20T09:59:31.123Z,21.40
2017-09-20T10:02:03.411Z,22.60
2017-09-20T10:04:35.655Z,22.80
2017-09-20T10:07:08.006Z,22.90
2017-09-20T10:09:40.290Z,22.30
2017-09-20T10:12:12.622Z,22.60
2017-09-20T10:14:45.661Z,23.80
2017-09-20T10:17:18.717Z,24.10
2017-09-20T10:19:50.960Z,24.10
2017-09-20T10:22:23.894Z,23.80
2017-09-20T10:24:56.141Z,23.80
2017-09-20T10:27:28.529Z,24.40
2017-09-20T10:30:01.580Z,24.60
2017-09-20T10:32:34.552Z,23.60
2017-09-20T10:35:06.858Z,23.60
2017-09-20T10:37:39.290Z,22.40
2017-09-20T10:40:11.680Z,22.30
2017-09-20T10:42:44.749Z,21.00
2017-09-20T10:45:17.049Z,21.00
2017-09-20T10:47:50.435Z,22.50
2017-09-20T10:50:22.804Z,22.40
2017-09-20T10:52:55.104Z,21.50
2017-09-20T10:55:27.456Z,20.70
2017-09-20T10:57:59.866Z,19.30
2017-09-20T11:00:32.196Z,18.60
2017-09-20T11:03:04.417Z,17.80
2017-09-20T11:05:36.645Z,17.50
2017-09-20T11:08:09.047Z,17.40
2017-09-20T11:10:41.248Z,17.20
2017-09-20T11:13:13.652Z,17.10
2017-09-20T11:15:46.142Z,17.40
2017-09-20T11:18:18.866Z,17.60
2017-09-20T11:20:51.618Z,18.20
2017-09-20T11:23:23.890Z,19.40
2017-09-20T11:26:00.503Z,20.30
2017-09-20T11:28:32.812Z,21.10
2017-09-20T11:31:05.592Z,22.30
2017-09-20T11:33:39.652Z,22.50
2017-09-20T11:36:12.441Z,22.40
2017-09-20T11:38:45.935Z,22.40
2017-09-20T11:41:19.463Z,21.40
2017-09-20T11:43:52.688Z,21.30
2017-09-20T11:46:25.697Z,20.60
2017-09-20T11:48:58.963Z,21.80
2017-09-20T11:51:32.069Z,21.10
2017-09-20T11:54:04.791Z,19.90
2017-09-20T11:56:37.981Z,20.20
2017-09-20T11:59:10.363Z,20.10
2017-09-20T12:01:42.773Z,20.40
2017-09-20T12:04:14.936Z,20.80
2017-09-20T12:06:47.185Z,20.90
2017-09-20T12:09:19.619Z,21.60
2017-09-20T12:11:51.754Z,21.70
2017-09-20T12:14:24.010Z,22.10
2017-09-20T12:16:57.121Z,22.50
2017-09-20T12:19:29.452Z,22.50
2017-09-20T12:22:02.768Z,22.80
2017-09-20T12:24:36.828Z,22.10
2017-09-20T12:27:09.244Z,21.70
2017-09-20T12:29:41.453Z,21.50
2017-09-20T12:32:13.719Z,21.10
2017-09-20T12:34:46.117Z,20.50
2017-09-20T12:37:18.472Z,20.40
2017-09-20T12:39:57.648Z,19.70
2017-09-20T12:42:30.045Z,19.60
2017-09-20T12:45:02.457Z,19.30
2017-09-20T12:47:34.690Z,19.40
2017-09-20T12:50:07.977Z,19.30
2017-09-20T12:52:40.444Z,19.30
2017-09-20T12:55:12.778Z,19.30
2017-09-20T12:57:45.068Z,19.10
2017-09-20T13:00:17.509Z,18.60
2017-09-20T13:02:50.117Z,18.40
2017-09-20T13:05:22.400Z,18.20
2017-09-20T13:07:54.745Z,17.90
2017-09-20T13:10:27.800Z,18.00
2017-09-20T13:13:00.745Z,17.90
2017-09-20T13:15:32.987Z,17.90
2017-09-20T13:18:05.405Z,17.80
2017-09-20T13:20:37.957Z,17.80
2017-09-20T13:23:10.239Z,17.80
2017-09-20T13:25:43.335Z,18.40
2017-09-20T13:28:15.694Z,18.30
2017-09-20T13:30:48.036Z,18.90
2017-09-20T13:33:20.445Z,19.40
2017-09-20T13:35:52.665Z,20.10
2017-09-20T13:38:25.570Z,21.50
2017-09-20T13:40:58.551Z,21.60
2017-09-20T13:43:30.841Z,21.60
2017-09-20T13:46:03.875Z,20.30
2017-09-20T13:48:36.092Z,20.30
2017-09-20T13:51:08.364Z,19.90
2017-09-20T13:53:40.767Z,19.40
2017-09-20T13:56:15.302Z,18.70
2017-09-20T13:58:48.525Z,18.20
2017-09-20T14:01:20.944Z,18.20
2017-09-20T14:03:53.341Z,18.10
2017-09-20T14:06:25.661Z,18.10
2017-09-20T14:08:58.336Z,18.00
2017-09-20T14:11:30.876Z,17.80
2017-09-20T14:14:03.491Z,17.80
2017-09-20T14:16:36.176Z,17.70
2017-09-20T14:19:09.782Z,17.80
2017-09-20T14:21:42.244Z,17.80
2017-09-20T14:24:14.854Z,18.40
2017-09-20T14:26:47.276Z,18.80
2017-09-20T14:29:19.841Z,19.10
2017-09-20T14:31:53.593Z,19.50
2017-09-20T14:34:25.925Z,19.90
2017-09-20T14:36:58.196Z,20.40
2017-09-20T14:39:30.573Z,20.40
2017-09-20T14:42:02.752Z,20.10
2017-09-20T14:44:35.264Z,20.00
2017-09-20T14:47:07.572Z,19.70
2017-09-20T14:49:40.604Z,19.80
2017-09-20T14:52:12.831Z,19.80
2017-09-20T14:54:45.888Z,19.30
2017-09-20T14:57:18.286Z,19.30
2017-09-20T14:59:50.667Z,18.70
2017-09-20T15:02:22.898Z,18.60
2017-09-20T15:04:55.270Z,18.20
2017-09-20T15:07:27.792Z,17.90
2017-09-20T15:10:00.162Z,17.90
2017-09-20T15:12:34.023Z,17.80
2017-09-20T15:15:07.405Z,17.60
2017-09-20T15:17:40.108Z,17.50
2017-09-20T15:20:12.517Z,17.40
2017-09-20T15:22:45.041Z,17.40
2017-09-20T15:25:17.314Z,17.40
2017-09-20T15:27:49.489Z,17.30
2017-09-20T15:30:21.855Z,17.20
2017-09-20T15:32:54.089Z,17.10
2017-09-20T15:35:26.394Z,17.00
2017-09-20T15:37:58.862Z,17.00
2017-09-20T15:40:31.261Z,16.90
2017-09-20T15:43:03.649Z,16.90
2017-09-20T15:45:35.924Z,16.90
2017-09-20T15:48:08.340Z,17.00
2017-09-20T15:50:41.529Z,16.80
2017-09-20T15:53:13.998Z,16.80
2017-09-20T15:55:46.324Z,16.70
2017-09-20T15:58:18.720Z,16.60
2017-09-20T16:00:50.961Z,16.50
2017-09-20T16:03:23.372Z,16.50
2017-09-20T16:05:55.765Z,16.40
2017-09-20T16:08:28.125Z,16.50
2017-09-20T16:11:00.447Z,16.50
2017-09-20T16:13:32.961Z,16.40
2017-09-20T16:16:05.194Z,16.30
2017-09-20T16:18:37.512Z,16.20
2017-09-20T16:21:09.826Z,16.30
2017-09-20T16:23:42.668Z,16.30
2017-09-20T16:26:15.147Z,16.20
2017-09-20T16:28:48.313Z,16.10
2017-09-20T16:31:20.596Z,16.10
2017-09-20T16:33:52.836Z,16.00
2017-09-20T16:36:25.892Z,15.80
2017-09-20T16:38:58.245Z,15.80
2017-09-20T16:41:30.817Z,15.80
2017-09-20T16:44:03.333Z,15.60
2017-09-20T16:46:35.606Z,15.60
2017-09-20T16:49:08.041Z,15.50
2017-09-20T16:51:40.455Z,15.40
2017-09-20T16:54:13.995Z,15.20
2017-09-20T16:56:46.428Z,15.10
2017-09-20T16:59:18.814Z,15.10
2017-09-20T17:01:51.402Z,15.10
2017-09-20T17:04:23.775Z,15.00
2017-09-20T17:06:55.951Z,14.80
2017-09-20T17:09:28.210Z,14.80
2017-09-20T17:12:01.340Z,14.70
2017-09-20T17:14:34.475Z,14.70
2017-09-20T17:17:06.629Z,14.60
2017-09-20T17:19:39.988Z,14.60
2017-09-20T17:22:12.361Z,14.50
2017-09-20T17:24:44.684Z,14.40
2017-09-20T17:27:17.565Z,14.60
2017-09-20T17:29:49.826Z,14.60
2017-09-20T17:32:22.183Z,14.60
2017-09-20T17:34:54.928Z,14.60
2017-09-20T17:37:27.619Z,14.70
2017-09-20T17:40:00.024Z,14.60
2017-09-20T17:42:32.521Z,14.80
2017-09-20T17:45:04.713Z,14.80
2017-09-20T17:47:37.056Z,14.70
2017-09-20T17:50:09.456Z,14.80
2017-09-20T17:52:42.616Z,14.70
2017-09-20T17:55:15.018Z,14.60
2017-09-20T17:57:47.233Z,14.70
2017-09-20T18:00:19.626Z,14.60
2017-09-20T18:02:52.069Z,14.60
2017-09-20T18:05:24.237Z,14.60
2017-09-20T18:07:57.120Z,14.60
2017-09-20T18:10:30.310Z,14.50
2017-09-20T18:13:02.778Z,14.60
2017-09-20T18:15:35.963Z,14.60
2017-09-20T18:18:08.318Z,14.60
2017-09-20T18:20:40.843Z,14.50
2017-09-20T18:23:13.160Z,14.60
2017-09-20T18:25:45.491Z,14.50
2017-09-20T18:28:17.848Z,14.50
2017-09-20T18:30:50.203Z,14.50
2017-09-20T18:33:22.624Z,14.40
2017-09-20T18:35:54.960Z,14.50
2017-09-20T18:38:27.204Z,14.50
2017-09-20T18:40:59.705Z,14.40
2017-09-20T18:43:32.720Z,14.40
2017-09-20T18:46:05.154Z,14.40
2017-09-20T18:48:37.437Z,14.40
2017-09-20T18:51:09.770Z,14.40
2017-09-20T18:53:42.070Z,14.40
2017-09-20T18:56:14.761Z,14.40
2017-09-20T18:58:47.693Z,14.40
2017-09-20T19:01:20.439Z,14.30
2017-09-20T19:03:53.513Z,14.40
2017-09-20T19:06:25.749Z,14.40
2017-09-20T19:08:58.800Z,14.40
2017-09-20T19:11:31.237Z,14.40
2017-09-20T19:14:03.553Z,14.40
2017-09-20T19:16:36.478Z,14.30
2017-09-20T19:19:08.685Z,14.30
2017-09-20T19:21:41.131Z,14.30
2017-09-20T19:24:13.408Z,14.30
2017-09-20T19:26:45.609Z,14.30
2017-09-20T19:29:18.094Z,14.30
2017-09-20T19:31:50.425Z,14.30
2017-09-20T19:34:22.765Z,14.20
2017-09-20T19:36:55.119Z,14.20
2017-09-20T19:39:28.255Z,14.20
2017-09-20T19:42:01.206Z,14.20
2017-09-20T19:44:33.548Z,14.20
2017-09-20T19:47:05.916Z,14.10
2017-09-20T19:49:38.931Z,14.00
2017-09-20T19:52:11.237Z,14.00
2017-09-20T19:54:43.660Z,14.00
2017-09-20T19:57:16.239Z,14.00
2017-09-20T19:59:48.617Z,14.00
2017-09-20T20:02:20.753Z,14.00
2017-09-20T20:04:53.014Z,14.00
2017-09-20T20:07:25.217Z,14.00
2017-09-20T20:09:57.541Z,14.00
2017-09-20T20:12:29.779Z,14.00
2017-09-20T20:15:01.985Z,14.00
2017-09-20T20:17:34.317Z,14.10
2017-09-20T20:20:07.629Z,14.00
2017-09-20T20:22:40.018Z,14.00
2017-09-20T20:25:12.239Z,14.00
2017-09-20T20:27:44.382Z,14.10
2017-09-20T20:30:16.649Z,14.10
2017-09-20T20:32:48.952Z,14.00
2017-09-20T20:35:22.204Z,14.10
2017-09-20T20:37:54.482Z,14.10
2017-09-20T20:40:26.854Z,14.10
2017-09-20T20:42:59.997Z,13.90
2017-09-20T20:45:32.244Z,13.90
2017-09-20T20:48:04.359Z,13.90
2017-09-20T20:50:36.890Z,13.90
2017-09-20T20:53:09.387Z,13.90
2017-09-20T20:55:41.744Z,13.90
2017-09-20T20:58:14.076Z,14.00
2017-09-20T21:00:46.309Z,13.90
2017-09-20T21:03:19.043Z,13.90
2017-09-20T21:05:51.886Z,14.00
2017-09-20T21:08:24.077Z,14.00
2017-09-20T21:10:56.461Z,14.00
2017-09-20T21:13:29.175Z,14.00
2017-09-20T21:16:01.588Z,13.90
2017-09-20T21:18:34.090Z,13.90
2017-09-20T21:21:06.597Z,13.80
2017-09-20T21:23:39.037Z,13.90
2017-09-20T21:26:11.348Z,13.90
2017-09-20T21:28:43.497Z,13.90
2017-09-20T21:31:16.334Z,13.80
2017-09-20T21:33:49.528Z,13.80
2017-09-20T21:36:22.192Z,13.80
2017-09-20T21:38:54.591Z,13.90
2017-09-20T21:41:26.981Z,13.90
2017-09-20T21:43:59.342Z,13.90
2017-09-20T21:46:31.522Z,13.90
2017-09-20T21:49:03.802Z,13.80
2017-09-20T21:51:37.012Z,13.90
2017-09-20T21:54:09.293Z,13.80
2017-09-20T21:56:41.670Z,13.80
2017-09-20T21:59:14.001Z,13.80
2017-09-20T22:01:46.463Z,13.80
2017-09-20T22:04:18.716Z,13.80
2017-09-20T22:06:50.986Z,13.70
2017-09-20T22:09:23.296Z,13.70
2017-09-20T22:11:55.700Z,13.70
2017-09-20T22:14:27.933Z,13.80
2017-09-20T22:17:12.596Z,13.70
2017-09-20T22:19:57.304Z,13.70
2017-09-20T22:22:42.190Z,13.70
2017-09-20T22:25:26.801Z,13.70
2017-09-20T22:27:59.177Z,13.70
2017-09-20T22:30:31.373Z,13.90
2017-09-20T22:33:03.843Z,13.90
2017-09-20T22:35:36.302Z,13.80
2017-09-20T22:38:08.472Z,13.80
2017-09-20T22:40:40.795Z,13.70
2017-09-20T22:43:13.044Z,13.60
2017-09-20T22:45:45.372Z,13.60
2017-09-20T22:48:17.602Z,13.60
2017-09-20T22:50:50.561Z,13.40
2017-09-20T22:53:22.729Z,13.40
2017-09-20T22:55:55.174Z,13.30
2017-09-20T22:58:27.596Z,13.30
2017-09-20T23:01:00.564Z,13.20
2017-09-20T23:03:32.840Z,13.20
2017-09-20T23:06:05.152Z,13.20
2017-09-20T23:08:37.456Z,13.20
2017-09-20T23:11:10.342Z,13.10
2017-09-20T23:13:42.625Z,13.00
2017-09-20T23:16:15.732Z,13.00
2017-09-20T23:18:48.877Z,13.10
2017-09-20T23:21:21.954Z,13.10
2017-09-20T23:23:54.141Z,13.10
2017-09-20T23:26:26.633Z,13.10
2017-09-20T23:28:59.735Z,13.30
2017-09-20T23:31:31.864Z,13.20
2017-09-20T23:34:04.344Z,13.30
2017-09-20T23:36:36.720Z,13.20
2017-09-20T23:39:09.749Z,13.20
2017-09-20T23:41:42.109Z,13.20
2017-09-20T23:44:14.306Z,13.10
2017-09-20T23:46:46.624Z,13.00
2017-09-20T23:49:19.674Z,12.90
2017-09-20T23:51:52.203Z,12.90
2017-09-20T23:54:24.630Z,12.90
2017-09-20T23:56:56.952Z,12.90
2017-09-20T23:59:29.201Z,12.90
